sensor_id;sensor_type;location;lat;lon;timestamp;pressure;altitude;pressure_sealevel;temperature;humidity
10720;BME280;5411;58.386;15.560;2022-10-28T00:01:26;100779.44;;;12.45;100.00
10720;BME280;5411;58.386;15.560;2022-10-28T00:03:58;100777.38;;;12.47;100.00
10720;BME280;5411;58.386;15.560;2022-10-28T00:06:29;100780.91;;;12.47;100.00
10720;BME280;5411;58.386;15.560;2022-10-28T00:08:58;100774.47;;;12.42;100.00
10720;BME280;5411;58.386;15.560;2022-10-28T00:11:27;100784.81;;;12.45;100.00
10720;BME280;5411;58.386;15.560;2022-10-28T00:13:58;100784.41;;;12.48;100.00
10720;BME280;5411;58.386;15.560;2022-10-28T00:16:28;100776.34;;;12.48;100.00
10720;BME280;5411;58.386;15.560;2022-10-28T00:18:58;100780.69;;;12.49;100.00
10720;BME280;5411;58.386;15.560;2022-10-28T00:21:28;100779.03;;;12.48;100.00
10720;BME280;5411;58.386;15.560;2022-10-28T00:24:00;100773.69;;;12.48;100.00
10720;BME280;5411;58.386;15.560;2022-10-28T00:26:30;100767.28;;;12.49;100.00
10720;BME280;5411;58.386;15.560;2022-10-28T00:28:59;100772.44;;;12.51;100.00
10720;BME280;5411;58.386;15.560;2022-10-28T00:31:30;100774.91;;;12.52;100.00
10720;BME280;5411;58.386;15.560;2022-10-28T00:34:01;100777.56;;;12.52;100.00
10720;BME280;5411;58.386;15.560;2022-10-28T00:36:31;100768.50;;;12.53;100.00
10720;BME280;5411;58.386;15.560;2022-10-28T00:39:01;100772.84;;;12.54;100.00
10720;BME280;5411;58.386;15.560;2022-10-28T00:41:32;100779.66;;;12.57;100.00
10720;BME280;5411;58.386;15.560;2022-10-28T00:46:46;100784.00;;;12.58;100.00
10720;BME280;5411;58.386;15.560;2022-10-28T00:49:22;100780.91;;;12.61;100.00
10720;BME280;5411;58.386;15.560;2022-10-28T00:51:54;100778.03;;;12.62;100.00
10720;BME280;5411;58.386;15.560;2022-10-28T00:54:25;100778.03;;;12.62;100.00
10720;BME280;5411;58.386;15.560;2022-10-28T00:56:56;100780.28;;;12.65;100.00
10720;BME280;5411;58.386;15.560;2022-10-28T00:59:27;100771.19;;;12.66;100.00
10720;BME280;5411;58.386;15.560;2022-10-28T01:01:56;100771.00;;;12.68;100.00
10720;BME280;5411;58.386;15.560;2022-10-28T01:04:28;100765.22;;;12.71;100.00
10720;BME280;5411;58.386;15.560;2022-10-28T01:06:56;100768.53;;;12.73;100.00
10720;BME280;5411;58.386;15.560;2022-10-28T01:09:26;100769.16;;;12.75;100.00
10720;BME280;5411;58.386;15.560;2022-10-28T01:11:58;100760.88;;;12.76;100.00
10720;BME280;5411;58.386;15.560;2022-10-28T01:14:40;100752.00;;;12.76;100.00
10720;BME280;5411;58.386;15.560;2022-10-28T01:17:22;100758.00;;;12.78;100.00
10720;BME280;5411;58.386;15.560;2022-10-28T01:20:19;100752.38;;;12.79;100.00
10720;BME280;5411;58.386;15.560;2022-10-28T01:22:52;100747.66;;;12.81;100.00
10720;BME280;5411;58.386;15.560;2022-10-28T01:25:48;100737.53;;;12.83;100.00
10720;BME280;5411;58.386;15.560;2022-10-28T01:28:50;100730.28;;;12.84;100.00
10720;BME280;5411;58.386;15.560;2022-10-28T01:31:38;100732.97;;;12.84;100.00
10720;BME280;5411;58.386;15.560;2022-10-28T01:34:15;100726.56;;;12.85;100.00
10720;BME280;5411;58.386;15.560;2022-10-28T01:36:55;100725.53;;;12.86;100.00
10720;BME280;5411;58.386;15.560;2022-10-28T01:39:30;100723.69;;;12.87;100.00
10720;BME280;5411;58.386;15.560;2022-10-28T01:42:09;100714.59;;;12.88;100.00
10720;BME280;5411;58.386;15.560;2022-10-28T01:44:45;100708.00;;;12.90;100.00
10720;BME280;5411;58.386;15.560;2022-10-28T01:47:19;100715.59;;;12.93;100.00
10720;BME280;5411;58.386;15.560;2022-10-28T01:49:53;100703.00;;;12.94;100.00
10720;BME280;5411;58.386;15.560;2022-10-28T01:52:25;100701.75;;;12.96;100.00
10720;BME280;5411;58.386;15.560;2022-10-28T01:54:58;100703.22;;;12.99;100.00
10720;BME280;5411;58.386;15.560;2022-10-28T01:57:30;100697.84;;;12.99;100.00
10720;BME280;5411;58.386;15.560;2022-10-28T02:00:00;100701.34;;;12.99;100.00
10720;BME280;5411;58.386;15.560;2022-10-28T02:02:31;100700.31;;;13.00;100.00
10720;BME280;5411;58.386;15.560;2022-10-28T02:05:32;100686.06;;;13.00;100.00
10720;BME280;5411;58.386;15.560;2022-10-28T02:07:56;100686.88;;;13.00;100.00
10720;BME280;5411;58.386;15.560;2022-10-28T02:10:31;100680.91;;;12.98;100.00
10720;BME280;5411;58.386;15.560;2022-10-28T02:13:07;100677.59;;;12.96;100.00
10720;BME280;5411;58.386;15.560;2022-10-28T02:15:45;100679.66;;;13.01;100.00
10720;BME280;5411;58.386;15.560;2022-10-28T02:18:23;100689.56;;;13.00;100.00
10720;BME280;5411;58.386;15.560;2022-10-28T02:20:57;100689.78;;;12.99;100.00
10720;BME280;5411;58.386;15.560;2022-10-28T02:23:36;100687.09;;;12.99;100.00
10720;BME280;5411;58.386;15.560;2022-10-28T02:26:14;100681.09;;;12.97;100.00
10720;BME280;5411;58.386;15.560;2022-10-28T02:28:53;100687.09;;;12.99;100.00
10720;BME280;5411;58.386;15.560;2022-10-28T02:31:25;100687.09;;;12.99;100.00
10720;BME280;5411;58.386;15.560;2022-10-28T02:33:59;100680.69;;;13.00;100.00
10720;BME280;5411;58.386;15.560;2022-10-28T02:36:34;100682.34;;;13.01;100.00
10720;BME280;5411;58.386;15.560;2022-10-28T02:39:05;100675.31;;;13.00;100.00
10720;BME280;5411;58.386;15.560;2022-10-28T02:41:38;100670.78;;;13.00;100.00
10720;BME280;5411;58.386;15.560;2022-10-28T02:44:12;100668.69;;;13.02;100.00
10720;BME280;5411;58.386;15.560;2022-10-28T02:46:44;100666.22;;;13.01;100.00
10720;BME280;5411;58.386;15.560;2022-10-28T02:49:15;100659.19;;;13.00;100.00
10720;BME280;5411;58.386;15.560;2022-10-28T02:51:45;100656.94;;;12.97;100.00
10720;BME280;5411;58.386;15.560;2022-10-28T02:54:17;100656.72;;;12.98;100.00
10720;BME280;5411;58.386;15.560;2022-10-28T02:56:50;100640.59;;;12.98;100.00
10720;BME280;5411;58.386;15.560;2022-10-28T02:59:19;100641.44;;;12.99;100.00
10720;BME280;5411;58.386;15.560;2022-10-28T03:01:50;100645.78;;;13.00;100.00
10720;BME280;5411;58.386;15.560;2022-10-28T03:04:20;100640.19;;;13.01;100.00
10720;BME280;5411;58.386;15.560;2022-10-28T03:06:48;100644.13;;;12.99;100.00
10720;BME280;5411;58.386;15.560;2022-10-28T03:11:55;100638.75;;;12.99;100.00
10720;BME280;5411;58.386;15.560;2022-10-28T03:14:32;100637.72;;;13.00;100.00
10720;BME280;5411;58.386;15.560;2022-10-28T03:17:00;100634.41;;;12.98;100.00
10720;BME280;5411;58.386;15.560;2022-10-28T03:19:30;100631.94;;;12.96;100.00
10720;BME280;5411;58.386;15.560;2022-10-28T03:21:58;100631.94;;;12.96;100.00
10720;BME280;5411;58.386;15.560;2022-10-28T03:24:26;100630.06;;;12.97;100.00
10720;BME280;5411;58.386;15.560;2022-10-28T03:26:54;100631.09;;;12.96;100.00
10720;BME280;5411;58.386;15.560;2022-10-28T03:29:28;100619.53;;;12.95;100.00
10720;BME280;5411;58.386;15.560;2022-10-28T03:31:56;100620.34;;;12.96;100.00
10720;BME280;5411;58.386;15.560;2022-10-28T03:34:24;100616.63;;;12.97;100.00
10720;BME280;5411;58.386;15.560;2022-10-28T03:36:54;100610.22;;;12.98;100.00
10720;BME280;5411;58.386;15.560;2022-10-28T03:39:22;100615.41;;;12.99;100.00
10720;BME280;5411;58.386;15.560;2022-10-28T03:41:50;100605.69;;;12.98;100.00
10720;BME280;5411;58.386;15.560;2022-10-28T03:44:18;100614.56;;;12.99;100.00
10720;BME280;5411;58.386;15.560;2022-10-28T03:46:46;100623.25;;;13.01;100.00
10720;BME280;5411;58.386;15.560;2022-10-28T03:49:14;100621.38;;;13.01;100.00
10720;BME280;5411;58.386;15.560;2022-10-28T03:51:42;100621.59;;;13.00;100.00
10720;BME280;5411;58.386;15.560;2022-10-28T03:54:11;100620.56;;;13.01;100.00
10720;BME280;5411;58.386;15.560;2022-10-28T03:56:39;100627.59;;;13.02;100.00
10720;BME280;5411;58.386;15.560;2022-10-28T03:59:08;100622.00;;;13.03;100.00
10720;BME280;5411;58.386;15.560;2022-10-28T04:01:36;100615.97;;;13.08;100.00
10720;BME280;5411;58.386;15.560;2022-10-28T04:04:04;100608.53;;;13.10;100.00
10720;BME280;5411;58.386;15.560;2022-10-28T04:06:32;100603.78;;;13.12;100.00
10720;BME280;5411;58.386;15.560;2022-10-28T04:09:00;100592.63;;;13.15;100.00
10720;BME280;5411;58.386;15.560;2022-10-28T04:11:30;100591.41;;;13.17;100.00
10720;BME280;5411;58.386;15.560;2022-10-28T04:13:58;100579.38;;;13.20;100.00
10720;BME280;5411;58.386;15.560;2022-10-28T04:16:26;100569.44;;;13.20;100.00
10720;BME280;5411;58.386;15.560;2022-10-28T04:18:54;100557.66;;;13.22;100.00
10720;BME280;5411;58.386;15.560;2022-10-28T04:21:22;100545.88;;;13.23;100.00
10720;BME280;5411;58.386;15.560;2022-10-28T04:23:51;100545.66;;;13.24;100.00
10720;BME280;5411;58.386;15.560;2022-10-28T04:26:19;100541.13;;;13.25;100.00
10720;BME280;5411;58.386;15.560;2022-10-28T04:28:48;100543.59;;;13.26;100.00
10720;BME280;5411;58.386;15.560;2022-10-28T04:31:25;100543.59;;;13.26;100.00
10720;BME280;5411;58.386;15.560;2022-10-28T04:33:54;100544.81;;;13.30;100.00
10720;BME280;5411;58.386;15.560;2022-10-28T04:36:22;100550.19;;;13.30;100.00
10720;BME280;5411;58.386;15.560;2022-10-28T04:38:50;100547.25;;;13.32;100.00
10720;BME280;5411;58.386;15.560;2022-10-28T04:41:18;100545.84;;;13.29;100.00
10720;BME280;5411;58.386;15.560;2022-10-28T04:43:46;100543.16;;;13.29;100.00
10720;BME280;5411;58.386;15.560;2022-10-28T04:46:28;100540.69;;;13.28;100.00
10720;BME280;5411;58.386;15.560;2022-10-28T04:48:56;100530.56;;;13.30;100.00
10720;BME280;5411;58.386;15.560;2022-10-28T04:51:24;100531.38;;;13.30;100.00
10720;BME280;5411;58.386;15.560;2022-10-28T04:53:52;100525.53;;;13.33;100.00
10720;BME280;5411;58.386;15.560;2022-10-28T04:56:20;100517.88;;;13.37;100.00
10720;BME280;5411;58.386;15.560;2022-10-28T04:58:51;100517.66;;;13.38;100.00
10720;BME280;5411;58.386;15.560;2022-10-28T05:01:19;100519.09;;;13.41;100.00
10720;BME280;5411;58.386;15.560;2022-10-28T05:03:49;100498.44;;;13.41;100.00
10720;BME280;5411;58.386;15.560;2022-10-28T05:06:17;100498.22;;;13.43;100.00
10720;BME280;5411;58.386;15.560;2022-10-28T05:08:45;100489.94;;;13.44;100.00
10720;BME280;5411;58.386;15.560;2022-10-28T05:11:13;100476.72;;;13.43;100.00
10720;BME280;5411;58.386;15.560;2022-10-28T05:13:41;100480.22;;;13.43;100.00
10720;BME280;5411;58.386;15.560;2022-10-28T05:16:09;100474.03;;;13.43;100.00
10720;BME280;5411;58.386;15.560;2022-10-28T05:18:37;100483.28;;;13.47;100.00
10720;BME280;5411;58.386;15.560;2022-10-28T05:21:07;100483.06;;;13.48;100.00
10720;BME280;5411;58.386;15.560;2022-10-28T05:23:35;100479.94;;;13.51;100.00
10720;BME280;5411;58.386;15.560;2022-10-28T05:26:04;100476.00;;;13.54;100.00
10720;BME280;5411;58.386;15.560;2022-10-28T05:28:32;100473.91;;;13.56;100.00
10720;BME280;5411;58.386;15.560;2022-10-28T05:31:00;100479.09;;;13.58;100.00
10720;BME280;5411;58.386;15.560;2022-10-28T05:33:29;100468.16;;;13.52;100.00
10720;BME280;5411;58.386;15.560;2022-10-28T05:35:57;100465.25;;;13.54;100.00
10720;BME280;5411;58.386;15.560;2022-10-28T05:38:28;100470.56;;;13.61;100.00
10720;BME280;5411;58.386;15.560;2022-10-28T05:40:56;100473.25;;;13.61;100.00
10720;BME280;5411;58.386;15.560;2022-10-28T05:43:24;100480.25;;;13.62;100.00
10720;BME280;5411;58.386;15.560;2022-10-28T05:45:52;100466.59;;;13.63;100.00
10720;BME280;5411;58.386;15.560;2022-10-28T05:48:20;100468.25;;;13.64;100.00
10720;BME280;5411;58.386;15.560;2022-10-28T05:50:51;100469.28;;;13.63;100.00
10720;BME280;5411;58.386;15.560;2022-10-28T05:53:19;100472.19;;;13.62;100.00
10720;BME280;5411;58.386;15.560;2022-10-28T05:55:48;100467.22;;;13.65;100.00
10720;BME280;5411;58.386;15.560;2022-10-28T05:58:16;100456.25;;;13.67;100.00
10720;BME280;5411;58.386;15.560;2022-10-28T06:00:44;100450.44;;;13.70;100.00
10720;BME280;5411;58.386;15.560;2022-10-28T06:03:13;100445.06;;;13.70;100.00
10720;BME280;5411;58.386;15.560;2022-10-28T06:05:43;100440.84;;;13.74;100.00
10720;BME280;5411;58.386;15.560;2022-10-28T06:08:12;100419.41;;;13.67;100.00
10720;BME280;5411;58.386;15.560;2022-10-28T06:10:40;100431.97;;;13.73;100.00
10720;BME280;5411;58.386;15.560;2022-10-28T06:13:10;100425.00;;;13.66;100.00
10720;BME280;5411;58.386;15.560;2022-10-28T06:15:38;100427.06;;;13.70;100.00
10720;BME280;5411;58.386;15.560;2022-10-28T06:18:07;100432.44;;;13.70;100.00
10720;BME280;5411;58.386;15.560;2022-10-28T06:20:35;100425.75;;;13.73;100.00
10720;BME280;5411;58.386;15.560;2022-10-28T06:23:03;100430.91;;;13.74;100.00
10720;BME280;5411;58.386;15.560;2022-10-28T06:25:31;100425.53;;;13.74;100.00
10720;BME280;5411;58.386;15.560;2022-10-28T06:28:00;100420.16;;;13.74;100.00
10720;BME280;5411;58.386;15.560;2022-10-28T06:30:29;100418.53;;;13.73;100.00
10720;BME280;5411;58.386;15.560;2022-10-28T06:33:00;100401.19;;;13.69;100.00
10720;BME280;5411;58.386;15.560;2022-10-28T06:35:29;100418.28;;;13.75;100.00
10720;BME280;5411;58.386;15.560;2022-10-28T06:37:57;100417.03;;;13.77;100.00
10720;BME280;5411;58.386;15.560;2022-10-28T06:40:27;100412.03;;;13.81;100.00
10720;BME280;5411;58.386;15.560;2022-10-28T06:42:59;100415.91;;;13.85;100.00
10720;BME280;5411;58.386;15.560;2022-10-28T06:45:29;100414.28;;;13.84;100.00
10720;BME280;5411;58.386;15.560;2022-10-28T06:47:58;100404.09;;;13.86;100.00
10720;BME280;5411;58.386;15.560;2022-10-28T06:50:28;100411.34;;;13.85;100.00
10720;BME280;5411;58.386;15.560;2022-10-28T06:52:58;100410.31;;;13.86;100.00
10720;BME280;5411;58.386;15.560;2022-10-28T06:55:30;100416.50;;;13.87;100.00
10720;BME280;5411;58.386;15.560;2022-10-28T06:57:58;100430.03;;;13.80;100.00
10720;BME280;5411;58.386;15.560;2022-10-28T07:00:28;100438.03;;;13.87;100.00
10720;BME280;5411;58.386;15.560;2022-10-28T07:03:02;100441.75;;;13.86;100.00
10720;BME280;5411;58.386;15.560;2022-10-28T07:05:31;100445.28;;;13.86;100.00
10720;BME280;5411;58.386;15.560;2022-10-28T07:07:59;100445.28;;;13.86;100.00
10720;BME280;5411;58.386;15.560;2022-10-28T07:10:27;100443.63;;;13.85;100.00
10720;BME280;5411;58.386;15.560;2022-10-28T07:12:55;100430.19;;;13.85;100.00
10720;BME280;5411;58.386;15.560;2022-10-28T07:15:24;100422.59;;;13.82;100.00
10720;BME280;5411;58.386;15.560;2022-10-28T07:17:54;100428.78;;;13.83;100.00
10720;BME280;5411;58.386;15.560;2022-10-28T07:20:23;100428.19;;;13.81;100.00
10720;BME280;5411;58.386;15.560;2022-10-28T07:22:55;100429.84;;;13.82;100.00
10720;BME280;5411;58.386;15.560;2022-10-28T07:25:25;100429.59;;;13.83;100.00
10720;BME280;5411;58.386;15.560;2022-10-28T07:27:56;100430.03;;;13.80;100.00
10720;BME280;5411;58.386;15.560;2022-10-28T07:30:26;100433.56;;;13.81;100.00
10720;BME280;5411;58.386;15.560;2022-10-28T07:32:56;100437.22;;;13.86;100.00
10720;BME280;5411;58.386;15.560;2022-10-28T07:35:26;100434.53;;;13.86;100.00
10720;BME280;5411;58.386;15.560;2022-10-28T07:37:55;100428.09;;;13.87;100.00
10720;BME280;5411;58.386;15.560;2022-10-28T07:40:23;100431.63;;;13.88;100.00
10720;BME280;5411;58.386;15.560;2022-10-28T07:42:52;100424.81;;;13.85;100.00
10720;BME280;5411;58.386;15.560;2022-10-28T07:45:20;100427.50;;;13.85;100.00
10720;BME280;5411;58.386;15.560;2022-10-28T07:47:48;100420.03;;;13.87;100.00
10720;BME280;5411;58.386;15.560;2022-10-28T07:50:18;100422.72;;;13.87;100.00
10720;BME280;5411;58.386;15.560;2022-10-28T07:52:58;100426.84;;;13.90;100.00
10720;BME280;5411;58.386;15.560;2022-10-28T07:55:36;100432.38;;;13.95;100.00
10720;BME280;5411;58.386;15.560;2022-10-28T07:58:05;100427.81;;;13.96;100.00
10720;BME280;5411;58.386;15.560;2022-10-28T08:00:33;100420.94;;;14.00;100.00
10720;BME280;5411;58.386;15.560;2022-10-28T08:03:01;100428.34;;;14.04;100.00
10720;BME280;5411;58.386;15.560;2022-10-28T08:05:31;100426.69;;;14.03;100.00
10720;BME280;5411;58.386;15.560;2022-10-28T08:07:59;100431.19;;;14.09;100.00
10720;BME280;5411;58.386;15.560;2022-10-28T08:10:27;100430.72;;;14.12;100.00
10720;BME280;5411;58.386;15.560;2022-10-28T08:12:57;100425.13;;;14.14;100.00
10720;BME280;5411;58.386;15.560;2022-10-28T08:15:26;100417.28;;;14.12;100.00
10720;BME280;5411;58.386;15.560;2022-10-28T08:17:55;100427.16;;;14.18;100.00
10720;BME280;5411;58.386;15.560;2022-10-28T08:20:24;100419.06;;;14.18;100.00
10720;BME280;5411;58.386;15.560;2022-10-28T08:22:53;100417.00;;;14.20;100.00
10720;BME280;5411;58.386;15.560;2022-10-28T08:25:22;100411.16;;;14.23;100.00
10720;BME280;5411;58.386;15.560;2022-10-28T08:27:50;100406.13;;;14.27;100.00
10720;BME280;5411;58.386;15.560;2022-10-28T08:30:18;100407.78;;;14.28;100.00
10720;BME280;5411;58.386;15.560;2022-10-28T08:32:46;100419.66;;;14.39;100.00
10720;BME280;5411;58.386;15.560;2022-10-28T08:35:14;100420.22;;;14.47;100.00
10720;BME280;5411;58.386;15.560;2022-10-28T08:37:49;100425.03;;;14.57;100.00
10720;BME280;5411;58.386;15.560;2022-10-28T08:40:24;100422.28;;;14.64;100.00
10720;BME280;5411;58.386;15.560;2022-10-28T08:43:00;100411.63;;;14.69;100.00
10720;BME280;5411;58.386;15.560;2022-10-28T08:45:38;100402.06;;;14.73;100.00
10720;BME280;5411;58.386;15.560;2022-10-28T08:48:15;100405.13;;;14.76;100.00
10720;BME280;5411;58.386;15.560;2022-10-28T08:50:50;100395.28;;;14.82;100.00
10720;BME280;5411;58.386;15.560;2022-10-28T08:53:22;100399.16;;;14.86;100.00
10720;BME280;5411;58.386;15.560;2022-10-28T08:55:57;100408.88;;;14.87;100.00
10720;BME280;5411;58.386;15.560;2022-10-28T08:58:33;100398.72;;;14.89;100.00
10720;BME280;5411;58.386;15.560;2022-10-28T09:01:04;100399.31;;;14.91;100.00
10720;BME280;5411;58.386;15.560;2022-10-28T09:03:37;100402.00;;;14.91;100.00
10720;BME280;5411;58.386;15.560;2022-10-28T09:06:09;100396.84;;;14.89;100.00
10720;BME280;5411;58.386;15.560;2022-10-28T09:08:40;100400.91;;;14.92;100.00
10720;BME280;5411;58.386;15.560;2022-10-28T09:14:33;100403.75;;;14.97;100.00
10720;BME280;5411;58.386;15.560;2022-10-28T09:17:15;100401.28;;;14.95;100.00
10720;BME280;5411;58.386;15.560;2022-10-28T09:19:47;100394.47;;;14.93;100.00
10720;BME280;5411;58.386;15.560;2022-10-28T09:22:21;100397.69;;;15.02;100.00
10720;BME280;5411;58.386;15.560;2022-10-28T09:24:53;100394.50;;;15.05;100.00
10720;BME280;5411;58.386;15.560;2022-10-28T09:27:43;100383.88;;;15.10;100.00
10720;BME280;5411;58.386;15.560;2022-10-28T09:30:47;100384.47;;;15.12;100.00
10720;BME280;5411;58.386;15.560;2022-10-28T09:33:35;100372.16;;;15.16;100.00
10720;BME280;5411;58.386;15.560;2022-10-28T09:36:11;100372.03;;;15.22;100.00
10720;BME280;5411;58.386;15.560;2022-10-28T09:38:43;100366.06;;;15.20;100.00
10720;BME280;5411;58.386;15.560;2022-10-28T09:41:15;100380.50;;;15.26;100.00
10720;BME280;5411;58.386;15.560;2022-10-28T09:43:50;100367.16;;;15.31;100.00
10720;BME280;5411;58.386;15.560;2022-10-28T09:46:21;100371.22;;;15.33;100.00
10720;BME280;5411;58.386;15.560;2022-10-28T09:48:52;100372.06;;;15.34;100.00
10720;BME280;5411;58.386;15.560;2022-10-28T09:51:27;100369.84;;;15.31;100.00
10720;BME280;5411;58.386;15.560;2022-10-28T09:53:59;100377.22;;;15.36;100.00
10720;BME280;5411;58.386;15.560;2022-10-28T09:56:28;100364.09;;;15.39;100.00
10720;BME280;5411;58.386;15.560;2022-10-28T09:59:01;100363.63;;;15.42;100.00
10720;BME280;5411;58.386;15.560;2022-10-28T10:01:31;100373.94;;;15.45;100.00
10720;BME280;5411;58.386;15.560;2022-10-28T10:04:01;100367.25;;;15.48;100.00
10720;BME280;5411;58.386;15.560;2022-10-28T10:06:36;100372.19;;;15.51;100.00
10720;BME280;5411;58.386;15.560;2022-10-28T10:09:16;100368.44;;;15.52;100.00
10720;BME280;5411;58.386;15.560;2022-10-28T10:11:47;100356.75;;;15.58;100.00
10720;BME280;5411;58.386;15.560;2022-10-28T10:14:21;100356.59;;;15.64;100.00
10720;BME280;5411;58.386;15.560;2022-10-28T10:16:53;100362.81;;;15.77;100.00
10720;BME280;5411;58.386;15.560;2022-10-28T10:19:24;100355.88;;;15.81;100.00
10720;BME280;5411;58.386;15.560;2022-10-28T10:21:53;100363.03;;;15.87;100.00
10720;BME280;5411;58.386;15.560;2022-10-28T10:24:29;100358.91;;;15.96;100.00
10720;BME280;5411;58.386;15.560;2022-10-28T10:27:01;100357.03;;;15.96;100.00
10720;BME280;5411;58.386;15.560;2022-10-28T10:29:46;100359.47;;;15.98;100.00
10720;BME280;5411;58.386;15.560;2022-10-28T10:32:17;100361.47;;;16.02;100.00
10720;BME280;5411;58.386;15.560;2022-10-28T10:34:53;100342.56;;;16.02;100.00
10720;BME280;5411;58.386;15.560;2022-10-28T10:37:23;100338.59;;;16.05;100.00
10720;BME280;5411;58.386;15.560;2022-10-28T10:40:04;100339.16;;;16.07;100.00
10720;BME280;5411;58.386;15.560;2022-10-28T10:42:33;100344.34;;;16.09;100.00
10720;BME280;5411;58.386;15.560;2022-10-28T10:45:22;100337.63;;;16.11;100.00
10720;BME280;5411;58.386;15.560;2022-10-28T10:48:09;100333.03;;;16.12;100.00
10720;BME280;5411;58.386;15.560;2022-10-28T10:50:41;100329.03;;;16.14;100.00
10720;BME280;5411;58.386;15.560;2022-10-28T10:53:18;100324.22;;;16.16;100.00
10720;BME280;5411;58.386;15.560;2022-10-28T10:55:52;100330.56;;;16.22;100.00
10720;BME280;5411;58.386;15.560;2022-10-28T10:58:24;100324.66;;;16.25;100.00
10720;BME280;5411;58.386;15.560;2022-10-28T11:00:57;100323.88;;;16.24;100.00
10720;BME280;5411;58.386;15.560;2022-10-28T11:03:29;100325.81;;;16.29;100.00
10720;BME280;5411;58.386;15.560;2022-10-28T11:06:01;100326.41;;;16.31;100.00
10720;BME280;5411;58.386;15.560;2022-10-28T11:08:53;100318.06;;;16.32;100.00
10720;BME280;5411;58.386;15.560;2022-10-28T11:11:31;100327.41;;;16.42;100.00
10720;BME280;5411;58.386;15.560;2022-10-28T11:14:04;100324.34;;;16.50;100.00
10720;BME280;5411;58.386;15.560;2022-10-28T11:16:51;100318.66;;;16.51;100.00
10720;BME280;5411;58.386;15.560;2022-10-28T11:19:21;100318.66;;;16.51;100.00
10720;BME280;5411;58.386;15.560;2022-10-28T11:22:00;100319.41;;;16.47;100.00
10720;BME280;5411;58.386;15.560;2022-10-28T11:25:02;100321.53;;;16.45;100.00
10720;BME280;5411;58.386;15.560;2022-10-28T11:27:45;100327.06;;;16.38;100.00
10720;BME280;5411;58.386;15.560;2022-10-28T11:30:29;100320.75;;;16.32;100.00
10720;BME280;5411;58.386;15.560;2022-10-28T11:33:05;100321.81;;;16.31;100.00
10720;BME280;5411;58.386;15.560;2022-10-28T11:36:01;100318.31;;;16.31;100.00
10720;BME280;5411;58.386;15.560;2022-10-28T11:38:42;100326.16;;;16.32;100.00
10720;BME280;5411;58.386;15.560;2022-10-28T11:41:22;100306.44;;;16.32;100.00
10720;BME280;5411;58.386;15.560;2022-10-28T11:43:53;100315.13;;;16.34;100.00
10720;BME280;5411;58.386;15.560;2022-10-28T11:46:35;100316.75;;;16.35;100.00
10720;BME280;5411;58.386;15.560;2022-10-28T11:52:16;100313.19;;;16.46;100.00
10720;BME280;5411;58.386;15.560;2022-10-28T11:54:55;100316.22;;;16.50;100.00
10720;BME280;5411;58.386;15.560;2022-10-28T11:57:35;100318.13;;;16.49;100.00
10720;BME280;5411;58.386;15.560;2022-10-28T12:00:24;100313.94;;;16.58;100.00
10720;BME280;5411;58.386;15.560;2022-10-28T12:03:03;100315.81;;;16.58;100.00
10720;BME280;5411;58.386;15.560;2022-10-28T12:05:43;100320.75;;;16.61;100.00
10720;BME280;5411;58.386;15.560;2022-10-28T12:08:24;100316.16;;;16.61;100.00
10720;BME280;5411;58.386;15.560;2022-10-28T12:11:09;100321.00;;;16.59;100.00
10720;BME280;5411;58.386;15.560;2022-10-28T12:13:47;100314.91;;;16.52;100.00
10720;BME280;5411;58.386;15.560;2022-10-28T12:16:27;100307.31;;;16.49;100.00
10720;BME280;5411;58.386;15.560;2022-10-28T12:19:01;100304.25;;;16.46;100.00
10720;BME280;5411;58.386;15.560;2022-10-28T12:21:33;100306.72;;;16.47;100.00
10720;BME280;5411;58.386;15.560;2022-10-28T12:24:05;100309.66;;;16.46;100.00
10720;BME280;5411;58.386;15.560;2022-10-28T12:26:44;100304.16;;;16.40;100.00
10720;BME280;5411;58.386;15.560;2022-10-28T12:29:15;100301.47;;;16.40;100.00
10720;BME280;5411;58.386;15.560;2022-10-28T12:31:48;100298.69;;;16.35;100.00
10720;BME280;5411;58.386;15.560;2022-10-28T12:34:24;100298.09;;;16.33;100.00
10720;BME280;5411;58.386;15.560;2022-10-28T12:36:59;100306.91;;;16.29;100.00
10720;BME280;5411;58.386;15.560;2022-10-28T12:39:32;100310.69;;;16.28;100.00
10720;BME280;5411;58.386;15.560;2022-10-28T12:42:04;100308.44;;;16.25;100.00
10720;BME280;5411;58.386;15.560;2022-10-28T12:44:38;100307.91;;;16.23;100.00
10720;BME280;5411;58.386;15.560;2022-10-28T12:47:15;100305.44;;;16.21;100.00
10720;BME280;5411;58.386;15.560;2022-10-28T12:49:52;100299.94;;;16.16;100.00
10720;BME280;5411;58.386;15.560;2022-10-28T12:52:35;100305.81;;;16.13;100.00
10720;BME280;5411;58.386;15.560;2022-10-28T12:55:14;100299.75;;;16.06;100.00
10720;BME280;5411;58.386;15.560;2022-10-28T12:57:48;100303.50;;;16.05;100.00
10720;BME280;5411;58.386;15.560;2022-10-28T13:00:22;100310.78;;;16.04;100.00
10720;BME280;5411;58.386;15.560;2022-10-28T13:02:56;100310.19;;;16.02;100.00
10720;BME280;5411;58.386;15.560;2022-10-28T13:05:49;100302.56;;;15.99;100.00
10720;BME280;5411;58.386;15.560;2022-10-28T13:08:37;100305.25;;;15.99;100.00
10720;BME280;5411;58.386;15.560;2022-10-28T13:11:33;100309.28;;;15.97;100.00
10720;BME280;5411;58.386;15.560;2022-10-28T13:14:24;100294.28;;;15.89;100.00
10720;BME280;5411;58.386;15.560;2022-10-28T13:17:12;100291.50;;;15.84;100.00
10720;BME280;5411;58.386;15.560;2022-10-28T13:19:54;100296.63;;;15.86;100.00
10720;BME280;5411;58.386;15.560;2022-10-28T13:22:39;100295.25;;;15.83;100.00